sensor_id;sensor_type;location;lat;lon;timestamp;temperature;humidity
15906;DHT22;8051;50.820;4.884;2022-08-05T00:02:20;19.20;99.90
15906;DHT22;8051;50.820;4.884;2022-08-05T00:04:47;19.10;99.90
15906;DHT22;8051;50.820;4.884;2022-08-05T00:07:15;19.20;99.90
15906;DHT22;8051;50.820;4.884;2022-08-05T00:09:43;19.20;99.90
15906;DHT22;8051;50.820;4.884;2022-08-05T00:12:10;19.20;99.90
15906;DHT22;8051;50.820;4.884;2022-08-05T00:14:37;19.10;99.90
15906;DHT22;8051;50.820;4.884;2022-08-05T00:17:04;19.10;99.90
15906;DHT22;8051;50.820;4.884;2022-08-05T00:19:31;19.20;99.90
15906;DHT22;8051;50.820;4.884;2022-08-05T00:21:58;19.20;99.90
15906;DHT22;8051;50.820;4.884;2022-08-05T00:24:27;19.20;99.90
15906;DHT22;8051;50.820;4.884;2022-08-05T00:26:55;19.20;99.90
15906;DHT22;8051;50.820;4.884;2022-08-05T00:29:23;19.30;99.90
15906;DHT22;8051;50.820;4.884;2022-08-05T00:31:49;19.30;99.90
15906;DHT22;8051;50.820;4.884;2022-08-05T00:34:16;19.20;99.90
15906;DHT22;8051;50.820;4.884;2022-08-05T00:36:43;19.10;99.90
15906;DHT22;8051;50.820;4.884;2022-08-05T00:39:10;19.10;99.90
15906;DHT22;8051;50.820;4.884;2022-08-05T00:41:37;19.10;99.90
15906;DHT22;8051;50.820;4.884;2022-08-05T00:44:05;19.10;99.90
15906;DHT22;8051;50.820;4.884;2022-08-05T00:46:32;18.70;99.90
15906;DHT22;8051;50.820;4.884;2022-08-05T00:48:59;18.30;99.90
15906;DHT22;8051;50.820;4.884;2022-08-05T00:51:26;18.10;99.90
15906;DHT22;8051;50.820;4.884;2022-08-05T00:53:52;18.00;99.90
15906;DHT22;8051;50.820;4.884;2022-08-05T00:56:19;18.00;99.90
15906;DHT22;8051;50.820;4.884;2022-08-05T00:58:46;18.10;99.90
15906;DHT22;8051;50.820;4.884;2022-08-05T01:01:15;18.20;99.90
15906;DHT22;8051;50.820;4.884;2022-08-05T01:03:42;18.30;99.90
15906;DHT22;8051;50.820;4.884;2022-08-05T01:06:09;18.30;99.90
15906;DHT22;8051;50.820;4.884;2022-08-05T01:08:36;18.10;99.90
15906;DHT22;8051;50.820;4.884;2022-08-05T01:11:07;18.10;99.90
15906;DHT22;8051;50.820;4.884;2022-08-05T01:13:38;18.10;99.90
15906;DHT22;8051;50.820;4.884;2022-08-05T01:16:11;18.10;99.90
15906;DHT22;8051;50.820;4.884;2022-08-05T01:18:43;18.00;99.90
15906;DHT22;8051;50.820;4.884;2022-08-05T01:21:25;18.00;99.90
15906;DHT22;8051;50.820;4.884;2022-08-05T01:24:08;17.90;99.90
15906;DHT22;8051;50.820;4.884;2022-08-05T01:26:47;18.00;99.90
15906;DHT22;8051;50.820;4.884;2022-08-05T01:29:26;18.00;99.90
15906;DHT22;8051;50.820;4.884;2022-08-05T01:31:59;17.90;99.90
15906;DHT22;8051;50.820;4.884;2022-08-05T01:34:30;17.80;99.90
15906;DHT22;8051;50.820;4.884;2022-08-05T01:37:07;17.70;99.90
15906;DHT22;8051;50.820;4.884;2022-08-05T01:39:35;17.60;99.90
15906;DHT22;8051;50.820;4.884;2022-08-05T01:42:04;17.60;99.90
15906;DHT22;8051;50.820;4.884;2022-08-05T01:44:33;17.60;99.90
15906;DHT22;8051;50.820;4.884;2022-08-05T01:47:01;17.60;99.90
15906;DHT22;8051;50.820;4.884;2022-08-05T01:49:29;17.60;99.90
15906;DHT22;8051;50.820;4.884;2022-08-05T01:51:58;17.60;99.90
15906;DHT22;8051;50.820;4.884;2022-08-05T01:54:41;17.70;99.90
15906;DHT22;8051;50.820;4.884;2022-08-05T01:57:11;17.70;99.90
15906;DHT22;8051;50.820;4.884;2022-08-05T01:59:40;17.70;99.90
15906;DHT22;8051;50.820;4.884;2022-08-05T02:02:09;17.60;99.90
15906;DHT22;8051;50.820;4.884;2022-08-05T02:04:37;17.60;99.90
15906;DHT22;8051;50.820;4.884;2022-08-05T02:07:06;17.60;99.90
15906;DHT22;8051;50.820;4.884;2022-08-05T02:09:33;17.70;99.90
15906;DHT22;8051;50.820;4.884;2022-08-05T02:12:03;17.70;99.90
15906;DHT22;8051;50.820;4.884;2022-08-05T02:14:36;17.70;99.90
15906;DHT22;8051;50.820;4.884;2022-08-05T02:17:10;17.80;99.90
15906;DHT22;8051;50.820;4.884;2022-08-05T02:19:43;17.80;99.90
15906;DHT22;8051;50.820;4.884;2022-08-05T02:22:15;17.90;99.90
15906;DHT22;8051;50.820;4.884;2022-08-05T02:24:46;18.00;99.90
15906;DHT22;8051;50.820;4.884;2022-08-05T02:27:17;18.00;99.90
15906;DHT22;8051;50.820;4.884;2022-08-05T02:29:46;18.00;99.90
15906;DHT22;8051;50.820;4.884;2022-08-05T02:32:17;18.00;99.90
15906;DHT22;8051;50.820;4.884;2022-08-05T02:34:46;18.10;99.90
15906;DHT22;8051;50.820;4.884;2022-08-05T02:37:13;18.10;99.90
15906;DHT22;8051;50.820;4.884;2022-08-05T02:39:41;18.10;99.90
15906;DHT22;8051;50.820;4.884;2022-08-05T02:42:09;18.10;99.90
15906;DHT22;8051;50.820;4.884;2022-08-05T02:44:38;18.10;99.90
15906;DHT22;8051;50.820;4.884;2022-08-05T02:47:08;18.10;99.90
15906;DHT22;8051;50.820;4.884;2022-08-05T02:49:39;18.10;99.90
15906;DHT22;8051;50.820;4.884;2022-08-05T02:52:10;18.20;99.90
15906;DHT22;8051;50.820;4.884;2022-08-05T02:54:40;18.20;99.90
15906;DHT22;8051;50.820;4.884;2022-08-05T02:57:11;18.20;99.90
15906;DHT22;8051;50.820;4.884;2022-08-05T02:59:40;18.30;99.90
15906;DHT22;8051;50.820;4.884;2022-08-05T03:02:09;18.30;99.90
15906;DHT22;8051;50.820;4.884;2022-08-05T03:04:38;18.40;99.90
15906;DHT22;8051;50.820;4.884;2022-08-05T03:07:06;18.30;99.90
15906;DHT22;8051;50.820;4.884;2022-08-05T03:09:34;18.30;99.90
15906;DHT22;8051;50.820;4.884;2022-08-05T03:12:01;18.30;99.90
15906;DHT22;8051;50.820;4.884;2022-08-05T03:14:28;18.30;99.90
15906;DHT22;8051;50.820;4.884;2022-08-05T03:16:55;18.30;99.90
15906;DHT22;8051;50.820;4.884;2022-08-05T03:19:22;18.30;99.90
15906;DHT22;8051;50.820;4.884;2022-08-05T03:21:50;18.20;99.90
15906;DHT22;8051;50.820;4.884;2022-08-05T03:24:18;18.20;99.90
15906;DHT22;8051;50.820;4.884;2022-08-05T03:26:45;18.20;99.90
15906;DHT22;8051;50.820;4.884;2022-08-05T03:29:12;18.10;99.90
15906;DHT22;8051;50.820;4.884;2022-08-05T03:31:39;18.00;99.90
15906;DHT22;8051;50.820;4.884;2022-08-05T03:34:06;18.00;99.90
15906;DHT22;8051;50.820;4.884;2022-08-05T03:36:33;18.00;99.90
15906;DHT22;8051;50.820;4.884;2022-08-05T03:39:07;18.00;99.90
15906;DHT22;8051;50.820;4.884;2022-08-05T03:41:34;17.90;99.90
15906;DHT22;8051;50.820;4.884;2022-08-05T03:44:01;17.90;99.90
15906;DHT22;8051;50.820;4.884;2022-08-05T03:46:28;17.90;99.90
15906;DHT22;8051;50.820;4.884;2022-08-05T03:48:54;17.90;99.90
15906;DHT22;8051;50.820;4.884;2022-08-05T03:51:27;17.90;99.90
15906;DHT22;8051;50.820;4.884;2022-08-05T03:53:59;18.00;99.90
15906;DHT22;8051;50.820;4.884;2022-08-05T03:56:35;18.00;99.90
15906;DHT22;8051;50.820;4.884;2022-08-05T03:59:06;18.10;99.90
15906;DHT22;8051;50.820;4.884;2022-08-05T04:01:36;18.00;99.90
15906;DHT22;8051;50.820;4.884;2022-08-05T04:04:06;18.00;99.90
15906;DHT22;8051;50.820;4.884;2022-08-05T04:06:34;18.00;99.90
15906;DHT22;8051;50.820;4.884;2022-08-05T04:09:02;18.00;99.90
15906;DHT22;8051;50.820;4.884;2022-08-05T04:11:32;18.00;99.90
15906;DHT22;8051;50.820;4.884;2022-08-05T04:14:00;18.10;99.90
15906;DHT22;8051;50.820;4.884;2022-08-05T04:16:27;18.10;99.90
15906;DHT22;8051;50.820;4.884;2022-08-05T04:18:54;18.00;99.90
15906;DHT22;8051;50.820;4.884;2022-08-05T04:21:21;18.10;99.90
15906;DHT22;8051;50.820;4.884;2022-08-05T04:23:49;18.00;99.90
15906;DHT22;8051;50.820;4.884;2022-08-05T04:26:15;18.00;99.90
15906;DHT22;8051;50.820;4.884;2022-08-05T04:28:44;18.00;99.90
15906;DHT22;8051;50.820;4.884;2022-08-05T04:31:11;18.00;99.90
15906;DHT22;8051;50.820;4.884;2022-08-05T04:33:38;18.00;99.90
15906;DHT22;8051;50.820;4.884;2022-08-05T04:36:05;18.00;99.90
15906;DHT22;8051;50.820;4.884;2022-08-05T04:38:35;18.00;99.90
15906;DHT22;8051;50.820;4.884;2022-08-05T04:41:02;17.90;99.90
15906;DHT22;8051;50.820;4.884;2022-08-05T04:43:28;17.80;99.90
15906;DHT22;8051;50.820;4.884;2022-08-05T04:45:57;17.80;99.90
15906;DHT22;8051;50.820;4.884;2022-08-05T04:48:24;17.70;99.90
15906;DHT22;8051;50.820;4.884;2022-08-05T04:50:50;17.70;99.90
15906;DHT22;8051;50.820;4.884;2022-08-05T04:53:18;17.60;99.90
15906;DHT22;8051;50.820;4.884;2022-08-05T04:55:45;17.60;99.90
15906;DHT22;8051;50.820;4.884;2022-08-05T04:58:13;17.60;99.90
15906;DHT22;8051;50.820;4.884;2022-08-05T05:00:41;17.40;99.90
15906;DHT22;8051;50.820;4.884;2022-08-05T05:03:10;17.30;99.90
15906;DHT22;8051;50.820;4.884;2022-08-05T05:05:37;17.30;99.90
15906;DHT22;8051;50.820;4.884;2022-08-05T05:08:06;17.40;99.90
15906;DHT22;8051;50.820;4.884;2022-08-05T05:10:38;17.40;99.90
15906;DHT22;8051;50.820;4.884;2022-08-05T05:13:07;17.30;99.90
15906;DHT22;8051;50.820;4.884;2022-08-05T05:15:34;17.30;99.90
15906;DHT22;8051;50.820;4.884;2022-08-05T05:18:01;17.30;99.90
15906;DHT22;8051;50.820;4.884;2022-08-05T05:20:29;17.30;99.90
15906;DHT22;8051;50.820;4.884;2022-08-05T05:22:57;17.30;99.90
15906;DHT22;8051;50.820;4.884;2022-08-05T05:25:24;17.30;99.90
15906;DHT22;8051;50.820;4.884;2022-08-05T05:27:51;17.40;99.90
15906;DHT22;8051;50.820;4.884;2022-08-05T05:30:18;17.40;99.90
15906;DHT22;8051;50.820;4.884;2022-08-05T05:32:45;17.30;99.90
15906;DHT22;8051;50.820;4.884;2022-08-05T05:35:12;17.40;99.90
15906;DHT22;8051;50.820;4.884;2022-08-05T05:37:47;17.40;99.90
15906;DHT22;8051;50.820;4.884;2022-08-05T05:40:15;17.50;99.90
15906;DHT22;8051;50.820;4.884;2022-08-05T05:42:42;17.50;99.90
15906;DHT22;8051;50.820;4.884;2022-08-05T05:45:09;17.50;99.90
15906;DHT22;8051;50.820;4.884;2022-08-05T05:47:36;17.50;99.90
15906;DHT22;8051;50.820;4.884;2022-08-05T05:50:04;17.50;99.90
15906;DHT22;8051;50.820;4.884;2022-08-05T05:52:31;17.60;99.90
15906;DHT22;8051;50.820;4.884;2022-08-05T05:54:59;17.70;99.90
15906;DHT22;8051;50.820;4.884;2022-08-05T05:57:26;17.70;99.90
15906;DHT22;8051;50.820;4.884;2022-08-05T05:59:53;17.80;99.90
15906;DHT22;8051;50.820;4.884;2022-08-05T06:02:20;17.90;99.90
15906;DHT22;8051;50.820;4.884;2022-08-05T06:04:47;18.00;99.90
15906;DHT22;8051;50.820;4.884;2022-08-05T06:07:14;18.00;99.90
15906;DHT22;8051;50.820;4.884;2022-08-05T06:09:40;18.00;99.90
15906;DHT22;8051;50.820;4.884;2022-08-05T06:12:09;18.00;99.90
15906;DHT22;8051;50.820;4.884;2022-08-05T06:14:36;18.10;99.90
15906;DHT22;8051;50.820;4.884;2022-08-05T06:17:03;18.10;99.90
15906;DHT22;8051;50.820;4.884;2022-08-05T06:19:30;18.20;99.90
15906;DHT22;8051;50.820;4.884;2022-08-05T06:21:56;18.30;99.90
15906;DHT22;8051;50.820;4.884;2022-08-05T06:24:23;18.40;99.90
15906;DHT22;8051;50.820;4.884;2022-08-05T06:26:50;18.40;99.90
15906;DHT22;8051;50.820;4.884;2022-08-05T06:29:19;18.40;99.90
15906;DHT22;8051;50.820;4.884;2022-08-05T06:31:46;18.60;99.90
15906;DHT22;8051;50.820;4.884;2022-08-05T06:34:13;18.60;99.90
15906;DHT22;8051;50.820;4.884;2022-08-05T06:36:40;18.60;99.90
15906;DHT22;8051;50.820;4.884;2022-08-05T06:39:06;18.80;99.90
15906;DHT22;8051;50.820;4.884;2022-08-05T06:41:33;18.90;99.90
15906;DHT22;8051;50.820;4.884;2022-08-05T06:44:00;18.80;99.90
15906;DHT22;8051;50.820;4.884;2022-08-05T06:46:28;18.80;99.90
15906;DHT22;8051;50.820;4.884;2022-08-05T06:48:55;18.80;99.90
15906;DHT22;8051;50.820;4.884;2022-08-05T06:51:22;18.80;99.90
15906;DHT22;8051;50.820;4.884;2022-08-05T06:53:50;18.80;99.90
15906;DHT22;8051;50.820;4.884;2022-08-05T06:56:18;18.80;99.90
15906;DHT22;8051;50.820;4.884;2022-08-05T06:58:45;18.90;99.90
15906;DHT22;8051;50.820;4.884;2022-08-05T07:01:12;19.00;99.90
15906;DHT22;8051;50.820;4.884;2022-08-05T07:03:40;19.10;99.90
15906;DHT22;8051;50.820;4.884;2022-08-05T07:06:07;19.10;99.90
15906;DHT22;8051;50.820;4.884;2022-08-05T07:08:36;19.10;99.90
15906;DHT22;8051;50.820;4.884;2022-08-05T07:11:03;19.10;99.90
15906;DHT22;8051;50.820;4.884;2022-08-05T07:13:33;19.20;99.90
15906;DHT22;8051;50.820;4.884;2022-08-05T07:16:17;19.30;99.90
15906;DHT22;8051;50.820;4.884;2022-08-05T07:19:03;19.30;99.90
15906;DHT22;8051;50.820;4.884;2022-08-05T07:21:30;19.60;99.90
15906;DHT22;8051;50.820;4.884;2022-08-05T07:23:57;19.80;99.90
15906;DHT22;8051;50.820;4.884;2022-08-05T07:26:24;20.00;99.90
15906;DHT22;8051;50.820;4.884;2022-08-05T07:28:53;20.20;99.90
15906;DHT22;8051;50.820;4.884;2022-08-05T07:31:21;20.40;99.90
15906;DHT22;8051;50.820;4.884;2022-08-05T07:33:48;20.40;99.90
15906;DHT22;8051;50.820;4.884;2022-08-05T07:36:16;20.40;99.90
15906;DHT22;8051;50.820;4.884;2022-08-05T07:38:43;20.40;99.90
15906;DHT22;8051;50.820;4.884;2022-08-05T07:41:13;20.20;99.90
15906;DHT22;8051;50.820;4.884;2022-08-05T07:43:41;20.00;99.90
15906;DHT22;8051;50.820;4.884;2022-08-05T07:46:11;19.90;99.90
15906;DHT22;8051;50.820;4.884;2022-08-05T07:48:38;19.90;99.90
15906;DHT22;8051;50.820;4.884;2022-08-05T07:51:05;20.00;99.90
15906;DHT22;8051;50.820;4.884;2022-08-05T07:53:33;20.10;99.90
15906;DHT22;8051;50.820;4.884;2022-08-05T07:56:01;20.20;99.90
15906;DHT22;8051;50.820;4.884;2022-08-05T07:58:28;20.00;99.90
15906;DHT22;8051;50.820;4.884;2022-08-05T08:00:55;20.10;99.90
15906;DHT22;8051;50.820;4.884;2022-08-05T08:03:21;20.20;99.90
15906;DHT22;8051;50.820;4.884;2022-08-05T08:05:49;20.40;99.90
15906;DHT22;8051;50.820;4.884;2022-08-05T08:08:17;20.50;99.90
15906;DHT22;8051;50.820;4.884;2022-08-05T08:10:46;20.60;99.90
15906;DHT22;8051;50.820;4.884;2022-08-05T08:13:12;20.80;99.90
15906;DHT22;8051;50.820;4.884;2022-08-05T08:15:41;20.90;99.90
15906;DHT22;8051;50.820;4.884;2022-08-05T08:18:11;21.00;99.90
15906;DHT22;8051;50.820;4.884;2022-08-05T08:20:41;21.20;99.90
15906;DHT22;8051;50.820;4.884;2022-08-05T08:23:08;21.30;99.90
15906;DHT22;8051;50.820;4.884;2022-08-05T08:25:35;21.30;99.90
15906;DHT22;8051;50.820;4.884;2022-08-05T08:28:03;21.30;99.90
15906;DHT22;8051;50.820;4.884;2022-08-05T08:30:30;21.10;99.90
15906;DHT22;8051;50.820;4.884;2022-08-05T08:32:57;21.20;99.90
15906;DHT22;8051;50.820;4.884;2022-08-05T08:35:24;20.80;99.90
15906;DHT22;8051;50.820;4.884;2022-08-05T08:37:52;20.90;99.90
15906;DHT22;8051;50.820;4.884;2022-08-05T08:40:19;21.20;99.90
15906;DHT22;8051;50.820;4.884;2022-08-05T08:42:49;21.50;99.90
15906;DHT22;8051;50.820;4.884;2022-08-05T08:45:19;21.80;99.90
15906;DHT22;8051;50.820;4.884;2022-08-05T08:47:49;21.90;99.90
15906;DHT22;8051;50.820;4.884;2022-08-05T08:50:18;21.60;99.90
15906;DHT22;8051;50.820;4.884;2022-08-05T08:52:49;21.70;99.90
15906;DHT22;8051;50.820;4.884;2022-08-05T08:55:18;21.40;99.90
15906;DHT22;8051;50.820;4.884;2022-08-05T08:57:46;21.50;99.90
15906;DHT22;8051;50.820;4.884;2022-08-05T09:00:13;21.70;99.90
15906;DHT22;8051;50.820;4.884;2022-08-05T09:02:43;21.90;99.90
15906;DHT22;8051;50.820;4.884;2022-08-05T09:05:10;21.90;99.90
15906;DHT22;8051;50.820;4.884;2022-08-05T09:07:39;21.80;99.90
15906;DHT22;8051;50.820;4.884;2022-08-05T09:10:07;21.60;99.90
15906;DHT22;8051;50.820;4.884;2022-08-05T09:12:34;21.30;99.90
15906;DHT22;8051;50.820;4.884;2022-08-05T09:15:02;21.40;99.90
15906;DHT22;8051;50.820;4.884;2022-08-05T09:17:29;21.70;99.90
15906;DHT22;8051;50.820;4.884;2022-08-05T09:19:58;22.10;99.90
15906;DHT22;8051;50.820;4.884;2022-08-05T09:22:25;21.90;99.90
15906;DHT22;8051;50.820;4.884;2022-08-05T09:24:59;21.80;99.90
15906;DHT22;8051;50.820;4.884;2022-08-05T09:27:31;21.70;99.90
15906;DHT22;8051;50.820;4.884;2022-08-05T09:30:00;21.60;99.90
15906;DHT22;8051;50.820;4.884;2022-08-05T09:32:33;21.60;99.90
15906;DHT22;8051;50.820;4.884;2022-08-05T09:35:09;21.70;99.90
15906;DHT22;8051;50.820;4.884;2022-08-05T09:37:37;21.90;99.90
15906;DHT22;8051;50.820;4.884;2022-08-05T09:40:06;22.10;99.90
15906;DHT22;8051;50.820;4.884;2022-08-05T09:42:39;22.30;99.90
15906;DHT22;8051;50.820;4.884;2022-08-05T09:45:08;22.30;99.90
15906;DHT22;8051;50.820;4.884;2022-08-05T09:47:39;22.40;99.90
15906;DHT22;8051;50.820;4.884;2022-08-05T09:50:08;22.30;99.90
15906;DHT22;8051;50.820;4.884;2022-08-05T09:52:35;22.00;99.90
15906;DHT22;8051;50.820;4.884;2022-08-05T09:55:04;22.00;99.90
15906;DHT22;8051;50.820;4.884;2022-08-05T09:57:36;22.00;99.90
15906;DHT22;8051;50.820;4.884;2022-08-05T10:00:07;21.80;99.90
15906;DHT22;8051;50.820;4.884;2022-08-05T10:02:37;21.80;99.90
15906;DHT22;8051;50.820;4.884;2022-08-05T10:05:08;22.10;99.90
15906;DHT22;8051;50.820;4.884;2022-08-05T10:07:49;22.30;99.90
15906;DHT22;8051;50.820;4.884;2022-08-05T10:10:18;22.40;99.90
15906;DHT22;8051;50.820;4.884;2022-08-05T10:12:46;22.60;99.90
15906;DHT22;8051;50.820;4.884;2022-08-05T10:15:16;22.90;99.90
15906;DHT22;8051;50.820;4.884;2022-08-05T10:17:44;23.20;99.90
15906;DHT22;8051;50.820;4.884;2022-08-05T10:20:12;23.40;99.90
15906;DHT22;8051;50.820;4.884;2022-08-05T10:22:42;23.60;99.90
15906;DHT22;8051;50.820;4.884;2022-08-05T10:25:09;23.90;99.90
15906;DHT22;8051;50.820;4.884;2022-08-05T10:27:36;23.80;99.90
15906;DHT22;8051;50.820;4.884;2022-08-05T10:30:05;23.20;99.90
15906;DHT22;8051;50.820;4.884;2022-08-05T10:32:32;22.70;99.90
15906;DHT22;8051;50.820;4.884;2022-08-05T10:34:59;22.30;99.90
15906;DHT22;8051;50.820;4.884;2022-08-05T10:37:28;22.00;99.90
15906;DHT22;8051;50.820;4.884;2022-08-05T10:39:57;21.80;99.90
15906;DHT22;8051;50.820;4.884;2022-08-05T10:42:27;21.60;99.90
15906;DHT22;8051;50.820;4.884;2022-08-05T10:44:55;21.70;99.90
15906;DHT22;8051;50.820;4.884;2022-08-05T10:47:30;21.90;99.90
15906;DHT22;8051;50.820;4.884;2022-08-05T10:50:00;22.00;99.90
15906;DHT22;8051;50.820;4.884;2022-08-05T10:52:41;22.10;99.90
15906;DHT22;8051;50.820;4.884;2022-08-05T10:55:09;22.30;99.90
15906;DHT22;8051;50.820;4.884;2022-08-05T10:57:38;22.60;99.90
15906;DHT22;8051;50.820;4.884;2022-08-05T11:00:10;22.90;99.90
15906;DHT22;8051;50.820;4.884;2022-08-05T11:02:40;23.30;99.90
15906;DHT22;8051;50.820;4.884;2022-08-05T11:05:27;23.50;99.90
15906;DHT22;8051;50.820;4.884;2022-08-05T11:07:59;23.90;99.90
15906;DHT22;8051;50.820;4.884;2022-08-05T11:10:27;24.20;99.90
15906;DHT22;8051;50.820;4.884;2022-08-05T11:12:55;24.10;99.90
15906;DHT22;8051;50.820;4.884;2022-08-05T11:15:24;23.80;99.90
15906;DHT22;8051;50.820;4.884;2022-08-05T11:17:52;23.50;99.90
15906;DHT22;8051;50.820;4.884;2022-08-05T11:20:47;23.60;99.90
15906;DHT22;8051;50.820;4.884;2022-08-05T11:23:34;23.50;99.90
15906;DHT22;8051;50.820;4.884;2022-08-05T11:26:06;23.70;99.90
15906;DHT22;8051;50.820;4.884;2022-08-05T11:28:39;24.20;99.90
15906;DHT22;8051;50.820;4.884;2022-08-05T11:31:28;24.50;99.90
15906;DHT22;8051;50.820;4.884;2022-08-05T11:34:03;24.80;99.90
15906;DHT22;8051;50.820;4.884;2022-08-05T11:36:47;24.70;99.90
15906;DHT22;8051;50.820;4.884;2022-08-05T11:39:48;24.40;99.90
15906;DHT22;8051;50.820;4.884;2022-08-05T11:42:21;23.80;99.90
15906;DHT22;8051;50.820;4.884;2022-08-05T11:44:49;23.50;99.90
15906;DHT22;8051;50.820;4.884;2022-08-05T11:47:21;23.30;99.90
15906;DHT22;8051;50.820;4.884;2022-08-05T11:49:55;23.30;99.90
15906;DHT22;8051;50.820;4.884;2022-08-05T11:52:22;23.50;99.90
15906;DHT22;8051;50.820;4.884;2022-08-05T11:54:52;23.30;99.90
15906;DHT22;8051;50.820;4.884;2022-08-05T11:57:19;23.40;99.90
15906;DHT22;8051;50.820;4.884;2022-08-05T11:59:46;23.70;99.90
15906;DHT22;8051;50.820;4.884;2022-08-05T12:02:13;24.10;99.90
15906;DHT22;8051;50.820;4.884;2022-08-05T12:04:41;24.60;99.90
15906;DHT22;8051;50.820;4.884;2022-08-05T12:07:10;24.90;99.90
15906;DHT22;8051;50.820;4.884;2022-08-05T12:09:39;24.80;99.90
15906;DHT22;8051;50.820;4.884;2022-08-05T12:12:08;24.70;99.90
15906;DHT22;8051;50.820;4.884;2022-08-05T12:14:36;24.50;99.90
15906;DHT22;8051;50.820;4.884;2022-08-05T12:17:06;24.30;99.90
15906;DHT22;8051;50.820;4.884;2022-08-05T12:19:40;24.30;99.90
15906;DHT22;8051;50.820;4.884;2022-08-05T12:22:07;24.40;99.90
15906;DHT22;8051;50.820;4.884;2022-08-05T12:24:40;24.60;99.90
15906;DHT22;8051;50.820;4.884;2022-08-05T12:27:09;25.00;99.90
15906;DHT22;8051;50.820;4.884;2022-08-05T12:29:36;25.30;99.90
15906;DHT22;8051;50.820;4.884;2022-08-05T12:32:04;25.30;99.90
15906;DHT22;8051;50.820;4.884;2022-08-05T12:34:33;25.40;99.90
15906;DHT22;8051;50.820;4.884;2022-08-05T12:37:04;25.00;99.90
15906;DHT22;8051;50.820;4.884;2022-08-05T12:39:35;24.70;99.90
15906;DHT22;8051;50.820;4.884;2022-08-05T12:42:03;24.70;99.90
15906;DHT22;8051;50.820;4.884;2022-08-05T12:44:35;25.10;99.90
15906;DHT22;8051;50.820;4.884;2022-08-05T12:47:03;25.60;99.90
15906;DHT22;8051;50.820;4.884;2022-08-05T12:49:43;25.90;99.90
15906;DHT22;8051;50.820;4.884;2022-08-05T12:52:12;25.70;99.90
15906;DHT22;8051;50.820;4.884;2022-08-05T12:54:40;25.60;99.90
15906;DHT22;8051;50.820;4.884;2022-08-05T12:57:08;25.60;99.90
15906;DHT22;8051;50.820;4.884;2022-08-05T12:59:45;25.70;99.90
15906;DHT22;8051;50.820;4.884;2022-08-05T13:02:15;25.50;99.90
15906;DHT22;8051;50.820;4.884;2022-08-05T13:04:44;25.50;99.90
15906;DHT22;8051;50.820;4.884;2022-08-05T13:07:13;25.40;99.90
15906;DHT22;8051;50.820;4.884;2022-08-05T13:09:42;25.30;99.90
15906;DHT22;8051;50.820;4.884;2022-08-05T13:12:11;25.40;99.90
15906;DHT22;8051;50.820;4.884;2022-08-05T13:14:40;25.30;99.90
15906;DHT22;8051;50.820;4.884;2022-08-05T13:17:14;25.30;99.90
15906;DHT22;8051;50.820;4.884;2022-08-05T13:19:55;25.40;99.90
15906;DHT22;8051;50.820;4.884;2022-08-05T13:22:23;25.50;99.90
15906;DHT22;8051;50.820;4.884;2022-08-05T13:24:50;25.50;99.90
15906;DHT22;8051;50.820;4.884;2022-08-05T13:27:23;25.50;99.90
15906;DHT22;8051;50.820;4.884;2022-08-05T13:29:50;25.20;99.90
15906;DHT22;8051;50.820;4.884;2022-08-05T13:32:19;25.00;99.90
15906;DHT22;8051;50.820;4.884;2022-08-05T13:34:46;25.00;99.90
15906;DHT22;8051;50.820;4.884;2022-08-05T13:37:13;24.60;99.90
15906;DHT22;8051;50.820;4.884;2022-08-05T13:39:40;24.60;99.90
15906;DHT22;8051;50.820;4.884;2022-08-05T13:42:08;24.80;99.90
15906;DHT22;8051;50.820;4.884;2022-08-05T13:44:35;25.10;99.90
15906;DHT22;8051;50.820;4.884;2022-08-05T13:47:02;25.20;99.90
15906;DHT22;8051;50.820;4.884;2022-08-05T13:49:30;25.00;99.90
15906;DHT22;8051;50.820;4.884;2022-08-05T13:52:08;24.80;99.90
15906;DHT22;8051;50.820;4.884;2022-08-05T13:54:35;24.80;99.90
15906;DHT22;8051;50.820;4.884;2022-08-05T13:57:02;24.70;99.90
15906;DHT22;8051;50.820;4.884;2022-08-05T13:59:29;24.40;99.90
15906;DHT22;8051;50.820;4.884;2022-08-05T14:01:57;24.30;99.90
15906;DHT22;8051;50.820;4.884;2022-08-05T14:04:25;24.30;99.90
15906;DHT22;8051;50.820;4.884;2022-08-05T14:07:11;24.20;99.90
15906;DHT22;8051;50.820;4.884;2022-08-05T14:09:38;24.20;99.90
15906;DHT22;8051;50.820;4.884;2022-08-05T14:12:06;24.30;99.90
15906;DHT22;8051;50.820;4.884;2022-08-05T14:14:33;24.30;99.90
15906;DHT22;8051;50.820;4.884;2022-08-05T14:17:00;24.40;99.90
15906;DHT22;8051;50.820;4.884;2022-08-05T14:19:27;24.60;99.90
15906;DHT22;8051;50.820;4.884;2022-08-05T14:21:53;24.50;99.90
15906;DHT22;8051;50.820;4.884;2022-08-05T14:24:22;24.60;99.90
15906;DHT22;8051;50.820;4.884;2022-08-05T14:26:48;24.70;99.90
15906;DHT22;8051;50.820;4.884;2022-08-05T14:29:15;24.70;99.90
15906;DHT22;8051;50.820;4.884;2022-08-05T14:31:42;24.80;99.90
15906;DHT22;8051;50.820;4.884;2022-08-05T14:34:09;24.80;99.90
15906;DHT22;8051;50.820;4.884;2022-08-05T14:36:36;25.10;99.90
15906;DHT22;8051;50.820;4.884;2022-08-05T14:39:03;25.20;99.90
15906;DHT22;8051;50.820;4.884;2022-08-05T14:41:32;25.20;99.90
15906;DHT22;8051;50.820;4.884;2022-08-05T14:43:59;25.10;99.90
15906;DHT22;8051;50.820;4.884;2022-08-05T14:46:28;25.10;99.90
15906;DHT22;8051;50.820;4.884;2022-08-05T14:48:57;24.40;99.90
15906;DHT22;8051;50.820;4.884;2022-08-05T14:51:25;24.20;99.90
15906;DHT22;8051;50.820;4.884;2022-08-05T14:53:52;24.00;99.90
15906;DHT22;8051;50.820;4.884;2022-08-05T14:56:20;24.10;99.90
15906;DHT22;8051;50.820;4.884;2022-08-05T14:58:48;24.10;99.90
15906;DHT22;8051;50.820;4.884;2022-08-05T15:01:16;24.20;99.90
15906;DHT22;8051;50.820;4.884;2022-08-05T15:03:43;24.40;99.90
15906;DHT22;8051;50.820;4.884;2022-08-05T15:06:10;24.70;99.90
15906;DHT22;8051;50.820;4.884;2022-08-05T15:08:36;24.80;99.90
15906;DHT22;8051;50.820;4.884;2022-08-05T15:11:03;24.50;99.90
15906;DHT22;8051;50.820;4.884;2022-08-05T15:13:32;24.00;99.90
15906;DHT22;8051;50.820;4.884;2022-08-05T15:16:00;24.00;99.90
15906;DHT22;8051;50.820;4.884;2022-08-05T15:18:28;24.10;99.90
15906;DHT22;8051;50.820;4.884;2022-08-05T15:20:55;24.10;99.90
15906;DHT22;8051;50.820;4.884;2022-08-05T15:23:22;24.00;99.90
15906;DHT22;8051;50.820;4.884;2022-08-05T15:25:49;24.00;99.90
15906;DHT22;8051;50.820;4.884;2022-08-05T15:28:16;24.10;99.90
15906;DHT22;8051;50.820;4.884;2022-08-05T15:30:43;24.20;99.90
15906;DHT22;8051;50.820;4.884;2022-08-05T15:33:11;24.40;99.90
15906;DHT22;8051;50.820;4.884;2022-08-05T15:35:38;24.40;99.90
15906;DHT22;8051;50.820;4.884;2022-08-05T15:38:05;24.20;99.90
15906;DHT22;8051;50.820;4.884;2022-08-05T15:40:32;23.80;99.90
15906;DHT22;8051;50.820;4.884;2022-08-05T15:42:59;23.40;99.90
15906;DHT22;8051;50.820;4.884;2022-08-05T15:45:26;23.20;99.90
15906;DHT22;8051;50.820;4.884;2022-08-05T15:47:53;23.10;99.90
15906;DHT22;8051;50.820;4.884;2022-08-05T15:50:21;23.00;99.90
15906;DHT22;8051;50.820;4.884;2022-08-05T15:52:48;23.10;99.90
15906;DHT22;8051;50.820;4.884;2022-08-05T15:55:15;23.30;99.90
15906;DHT22;8051;50.820;4.884;2022-08-05T15:57:43;23.30;99.90